createdAt,value
2017-02-09T00:00:53.567Z,97
2017-02-09T00:02:06.589Z,96.91
2017-02-09T00:03:19.509Z,96.63
2017-02-09T00:04:32.548Z,97.48
2017-02-09T00:05:45.577Z,97.29
2017-02-09T00:06:58.619Z,97.29
2017-02-09T00:08:11.619Z,97.48
2017-02-09T00:09:24.635Z,97.48
2017-02-09T00:10:37.656Z,96.91
2017-02-09T00:11:50.707Z,96.81
2017-02-09T00:13:03.341Z,96.53
2017-02-09T00:14:16.344Z,96.44
2017-02-09T00:15:29.346Z,96.81
2017-02-09T00:16:41.989Z,96.81
2017-02-09T00:17:55.010Z,97
2017-02-09T00:19:08.052Z,96.58
2017-02-09T00:20:21.101Z,96.77
2017-02-09T00:21:34.123Z,96.53
2017-02-09T00:22:47.144Z,96.58
2017-02-09T00:24:00.220Z,96.72
2017-02-09T00:25:12.882Z,96.77
2017-02-09T00:26:25.898Z,96.77
2017-02-09T00:27:38.523Z,96.77
2017-02-09T00:28:51.576Z,97.19
2017-02-09T00:30:04.632Z,97.14
2017-02-09T00:31:17.664Z,96.77
2017-02-09T00:32:30.661Z,96.48
2017-02-09T00:33:43.302Z,96.3
2017-02-09T00:34:56.324Z,96.58
2017-02-09T00:36:09.348Z,96.86
2017-02-09T00:37:22.348Z,97.14
2017-02-09T00:38:34.615Z,96.86
2017-02-09T00:39:47.642Z,97.33
2017-02-09T00:41:00.659Z,96.77
2017-02-09T00:42:13.302Z,97.05
2017-02-09T00:43:26.339Z,96.77
2017-02-09T00:44:39.400Z,97.14
2017-02-09T00:45:52.415Z,96.77
2017-02-09T00:47:05.407Z,96.48
2017-02-09T00:48:18.427Z,96.77
2017-02-09T00:49:31.449Z,96.95
2017-02-09T00:50:44.487Z,97.14
2017-02-09T00:51:57.495Z,96.86
2017-02-09T00:53:10.117Z,96.58
2017-02-09T00:54:23.110Z,97.24
2017-02-09T00:55:36.123Z,97.14
2017-02-09T00:56:49.149Z,97.14
2017-02-09T00:58:02.476Z,97.61
2017-02-09T00:59:15.498Z,97.99
2017-02-09T01:00:28.487Z,97.52
2017-02-09T01:01:41.534Z,97.38
2017-02-09T01:02:54.561Z,97.33
2017-02-09T01:04:07.577Z,96.58
2017-02-09T01:05:20.225Z,97.05
2017-02-09T01:06:33.283Z,97.19
2017-02-09T01:07:46.316Z,97.1
2017-02-09T01:08:59.333Z,96.86
2017-02-09T01:10:12.369Z,97.19
2017-02-09T01:11:25.002Z,97.43
2017-02-09T01:12:37.648Z,97.57
2017-02-09T01:13:50.688Z,97.57
2017-02-09T01:15:03.717Z,97.61
2017-02-09T01:16:16.713Z,97.24
2017-02-09T01:17:29.707Z,96.77
2017-02-09T01:18:42.702Z,96.95
2017-02-09T01:19:55.722Z,96.77
2017-02-09T01:21:08.769Z,97.05
2017-02-09T01:22:21.408Z,96.77
2017-02-09T01:23:34.438Z,96.95
2017-02-09T01:24:47.454Z,96.95
2017-02-09T01:26:00.519Z,97.33
2017-02-09T01:27:13.149Z,97.24
2017-02-09T01:28:26.166Z,97.43
2017-02-09T01:29:39.213Z,97.05
2017-02-09T01:30:52.485Z,96.95
2017-02-09T01:32:05.473Z,96.77
2017-02-09T01:33:18.517Z,96.86
2017-02-09T01:34:31.539Z,96.58
2017-02-09T01:35:44.545Z,96.67
2017-02-09T01:36:57.563Z,96.86
2017-02-09T01:38:10.209Z,96.86
2017-02-09T01:39:23.239Z,96.77
2017-02-09T01:40:36.276Z,96.86
2017-02-09T01:41:48.896Z,96.95
2017-02-09T01:43:01.917Z,96.77
2017-02-09T01:44:14.936Z,97.05
2017-02-09T01:45:27.936Z,97.05
2017-02-09T01:46:40.957Z,96.95
2017-02-09T01:47:53.978Z,96.77
2017-02-09T01:49:06.973Z,97.43
2017-02-09T01:50:20.020Z,96.95
2017-02-09T01:51:33.086Z,96.77
2017-02-09T01:52:46.112Z,96.95
2017-02-09T01:53:59.132Z,96.39
2017-02-09T01:55:11.775Z,96.48
2017-02-09T01:56:24.772Z,96.58
2017-02-09T01:57:38.035Z,96.86
2017-02-09T01:58:51.092Z,96.77
2017-02-09T02:00:04.101Z,97.24
2017-02-09T02:01:17.105Z,97.43
2017-02-09T02:02:30.127Z,96.95
2017-02-09T02:03:42.750Z,96.95
2017-02-09T02:04:55.365Z,96.58
2017-02-09T02:06:08.035Z,96.39
2017-02-09T02:07:21.064Z,97.05
2017-02-09T02:08:34.080Z,97.43
2017-02-09T02:09:47.131Z,97.43
2017-02-09T02:11:00.148Z,97.33
2017-02-09T02:12:13.185Z,97.33
2017-02-09T02:13:26.217Z,97.71
2017-02-09T02:14:39.240Z,97.43
2017-02-09T02:15:52.259Z,96.95
2017-02-09T02:17:05.255Z,96.77
2017-02-09T02:18:18.303Z,96.95
2017-02-09T02:19:31.343Z,96.86
2017-02-09T02:20:44.369Z,97.33
2017-02-09T02:21:57.387Z,97.24
2017-02-09T02:23:10.005Z,96.86
2017-02-09T02:24:23.029Z,97.14
2017-02-09T02:25:36.065Z,96.77
2017-02-09T02:26:49.067Z,97.14
2017-02-09T02:28:01.694Z,96.58
2017-02-09T02:29:14.709Z,96.58
2017-02-09T02:30:27.709Z,96.86
2017-02-09T02:31:40.754Z,96.3
2017-02-09T02:32:53.782Z,96.77
2017-02-09T02:34:06.825Z,96.67
2017-02-09T02:35:19.865Z,96.77
2017-02-09T02:36:32.888Z,96.86
2017-02-09T02:37:45.931Z,96.58
2017-02-09T02:38:58.956Z,96.48
2017-02-09T02:40:11.593Z,96.77
2017-02-09T02:41:24.248Z,96.86
2017-02-09T02:42:37.269Z,96.77
2017-02-09T02:43:49.912Z,96.39
2017-02-09T02:45:02.935Z,95.83
2017-02-09T02:46:15.956Z,96.95
2017-02-09T02:47:28.956Z,96.77
2017-02-09T02:48:41.577Z,96.77
2017-02-09T02:49:54.216Z,96.67
2017-02-09T02:51:07.226Z,96.86
2017-02-09T02:52:20.123Z,96.77
2017-02-09T02:53:33.156Z,96.86
2017-02-09T02:54:45.756Z,96.95
2017-02-09T02:55:58.769Z,97.33
2017-02-09T02:57:11.811Z,96.95
2017-02-09T02:58:24.463Z,97.24
2017-02-09T02:59:37.488Z,96.58
2017-02-09T03:00:50.484Z,96.67
2017-02-09T03:02:03.507Z,97.14
2017-02-09T03:03:16.776Z,97.05
2017-02-09T03:04:29.820Z,97.14
2017-02-09T03:05:42.839Z,96.77
2017-02-09T03:06:55.857Z,96.95
2017-02-09T03:08:08.508Z,96.77
2017-02-09T03:09:21.524Z,97.05
2017-02-09T03:10:34.556Z,97.33
2017-02-09T03:11:47.590Z,97.14
2017-02-09T03:13:00.616Z,97.33
2017-02-09T03:14:13.628Z,97.52
2017-02-09T03:15:26.634Z,96.86
2017-02-09T03:16:39.666Z,97.05
2017-02-09T03:17:52.674Z,96.77
2017-02-09T03:19:05.697Z,96.95
2017-02-09T03:20:18.736Z,96.86
2017-02-09T03:21:31.764Z,96.95
2017-02-09T03:22:44.783Z,96.95
2017-02-09T03:23:57.828Z,96.86
2017-02-09T03:25:11.124Z,96.81
2017-02-09T03:26:24.141Z,97.14
2017-02-09T03:27:37.163Z,96.86
2017-02-09T03:28:50.313Z,97.14
2017-02-09T03:30:03.035Z,97.24
2017-02-09T03:31:15.732Z,97.05
2017-02-09T03:32:28.830Z,96.95
2017-02-09T03:33:41.940Z,96.86
2017-02-09T03:34:54.246Z,96.77
2017-02-09T03:36:07.343Z,96.86
2017-02-09T03:37:20.413Z,96.95
2017-02-09T03:38:33.481Z,96.95
2017-02-09T03:39:46.557Z,96.53
2017-02-09T03:40:59.650Z,96.95
2017-02-09T03:42:12.747Z,97
2017-02-09T03:43:25.843Z,96.77
2017-02-09T03:44:38.939Z,97.38
2017-02-09T03:45:51.637Z,97.05
2017-02-09T03:47:04.729Z,97.19
2017-02-09T03:48:17.826Z,96.91
2017-02-09T03:49:30.923Z,97
2017-02-09T03:50:44.018Z,97
2017-02-09T03:51:57.114Z,96.44
2017-02-09T03:53:09.838Z,96.2
2017-02-09T03:54:22.938Z,95.73
2017-02-09T03:55:35.669Z,96.3
2017-02-09T03:56:48.753Z,96.58
2017-02-09T03:58:01.869Z,96.77
2017-02-09T03:59:14.967Z,96.95
2017-02-09T04:00:28.035Z,96.58
2017-02-09T04:01:41.100Z,96.67
2017-02-09T04:02:54.387Z,96.77
2017-02-09T04:04:07.444Z,96.67
2017-02-09T04:05:20.530Z,97.14
2017-02-09T04:06:33.217Z,96.25
2017-02-09T04:07:46.258Z,96.11
2017-02-09T04:08:59.323Z,96.2
2017-02-09T04:10:12.377Z,96.06
2017-02-09T04:11:25.420Z,96.2
2017-02-09T04:12:38.465Z,96.11
2017-02-09T04:13:51.515Z,96.3
2017-02-09T04:15:04.605Z,96.39
2017-02-09T04:16:17.647Z,96.39
2017-02-09T04:17:30.698Z,96.01
2017-02-09T04:18:43.752Z,96.3
2017-02-09T04:19:56.791Z,96.48
2017-02-09T04:21:09.855Z,96.11
2017-02-09T04:22:22.952Z,95.92
2017-02-09T04:23:35.247Z,96.2
2017-02-09T04:24:48.312Z,96.3
2017-02-09T04:26:01.386Z,96.3
2017-02-09T04:27:14.442Z,96.67
2017-02-09T04:28:27.511Z,96.95
2017-02-09T04:29:40.556Z,96.58
2017-02-09T04:30:53.600Z,96.39
2017-02-09T04:32:06.675Z,96.3
2017-02-09T04:33:18.942Z,96.39
2017-02-09T04:34:31.964Z,96.11
2017-02-09T04:35:45.008Z,96.2
2017-02-09T04:36:58.026Z,96.11
2017-02-09T04:38:10.654Z,95.64
2017-02-09T04:39:23.669Z,95.54
2017-02-09T04:40:36.939Z,95.92
2017-02-09T04:41:49.936Z,95.92
2017-02-09T04:43:02.959Z,96.11
2017-02-09T04:44:16.005Z,96.67
2017-02-09T04:45:29.027Z,96.48
2017-02-09T04:46:42.076Z,96.77
2017-02-09T04:47:55.116Z,96.77
2017-02-09T04:49:08.135Z,96.86
2017-02-09T04:50:21.177Z,97.14
2017-02-09T04:51:34.206Z,96.39
2017-02-09T04:52:47.227Z,96.77
2017-02-09T04:53:59.868Z,96.67
2017-02-09T04:55:12.485Z,96.86
2017-02-09T04:56:25.489Z,96.77
2017-02-09T04:57:38.510Z,96.77
2017-02-09T04:58:51.529Z,96.3
2017-02-09T05:00:04.529Z,96.3
2017-02-09T05:01:17.535Z,96.39
2017-02-09T05:02:30.571Z,96.2
2017-02-09T05:03:43.211Z,96.77
2017-02-09T05:04:56.213Z,96.77
2017-02-09T05:06:08.849Z,96.58
2017-02-09T05:07:21.903Z,96.39
2017-02-09T05:08:34.924Z,96.39
2017-02-09T05:09:47.915Z,96.39
2017-02-09T05:11:00.937Z,96.95
2017-02-09T05:12:13.985Z,96.58
2017-02-09T05:13:27.029Z,97.33
2017-02-09T05:14:40.054Z,97.33
2017-02-09T05:15:52.669Z,97.05
2017-02-09T05:17:05.694Z,96.77
2017-02-09T05:18:18.338Z,96.58
2017-02-09T05:19:31.378Z,96.39
2017-02-09T05:20:44.403Z,96.39
2017-02-09T05:21:57.050Z,96.3
2017-02-09T05:23:10.074Z,96.48
2017-02-09T05:24:23.122Z,96.39
2017-02-09T05:25:36.154Z,96.77
2017-02-09T05:26:49.160Z,96.86
2017-02-09T05:28:02.182Z,96.77
2017-02-09T05:29:14.795Z,96.39
2017-02-09T05:30:27.825Z,96.67
2017-02-09T05:31:40.466Z,97.14
2017-02-09T05:32:53.515Z,96.95
2017-02-09T05:34:06.203Z,96.77
2017-02-09T05:35:19.203Z,97.05
2017-02-09T05:36:32.216Z,96.95
2017-02-09T05:37:45.219Z,97.14
2017-02-09T05:38:58.245Z,96.95
2017-02-09T05:40:11.286Z,96.77
2017-02-09T05:41:24.307Z,96.67
2017-02-09T05:42:37.324Z,96.86
2017-02-09T05:43:50.355Z,96.77
2017-02-09T05:45:03.387Z,96.67
2017-02-09T05:46:16.365Z,96.86
2017-02-09T05:47:29.408Z,97.43
2017-02-09T05:48:42.411Z,97.14
2017-02-09T05:49:55.428Z,97.71
2017-02-09T05:51:08.699Z,97.8
2017-02-09T05:52:21.721Z,97.8
2017-02-09T05:53:34.723Z,97.8
2017-02-09T05:54:47.761Z,97.52
2017-02-09T05:56:00.758Z,98.28
2017-02-09T05:57:13.781Z,96.95
2017-02-09T05:58:26.800Z,96.77
2017-02-09T05:59:39.812Z,97.24
2017-02-09T06:00:52.825Z,96.86
2017-02-09T06:02:05.837Z,97.14
2017-02-09T06:03:18.487Z,97.24
2017-02-09T06:04:31.728Z,97.52
2017-02-09T06:05:44.752Z,97.24
2017-02-09T06:06:57.373Z,97.43
2017-02-09T06:08:10.391Z,97.8
2017-02-09T06:09:23.409Z,97.43
2017-02-09T06:10:36.464Z,97.8
2017-02-09T06:11:49.506Z,97.9
2017-02-09T06:13:02.126Z,97.71
2017-02-09T06:14:15.146Z,97.24
2017-02-09T06:15:28.162Z,97.05
2017-02-09T06:16:41.163Z,97.14
2017-02-09T06:17:54.187Z,97.61
2017-02-09T06:19:07.484Z,97.33
2017-02-09T06:20:20.528Z,97.9
2017-02-09T06:21:33.520Z,97.61
2017-02-09T06:22:46.545Z,98.28
2017-02-09T06:23:59.545Z,98.18
2017-02-09T06:25:12.561Z,97.8
2017-02-09T06:26:25.206Z,97.43
2017-02-09T06:27:38.250Z,97.61
2017-02-09T06:28:51.298Z,97.43
2017-02-09T06:30:04.322Z,96.86
2017-02-09T06:31:17.344Z,97.43
2017-02-09T06:32:30.355Z,97.14
2017-02-09T06:33:42.982Z,97.14
2017-02-09T06:34:56.020Z,97.52
2017-02-09T06:36:08.646Z,97.8
2017-02-09T06:37:21.642Z,97.33
2017-02-09T06:38:34.688Z,97.8
2017-02-09T06:39:47.715Z,97.52
2017-02-09T06:41:00.347Z,97.52
2017-02-09T06:42:13.381Z,97.52
2017-02-09T06:43:26.415Z,97.61
2017-02-09T06:44:39.463Z,97.61
2017-02-09T06:45:52.479Z,97.05
2017-02-09T06:47:05.509Z,97.43
2017-02-09T06:48:18.534Z,96.86
2017-02-09T06:49:31.552Z,96.95
2017-02-09T06:50:44.589Z,96.67
2017-02-09T06:51:57.592Z,96.95
2017-02-09T06:53:10.588Z,96.86
2017-02-09T06:54:23.587Z,97.52
2017-02-09T06:55:36.604Z,97.52
2017-02-09T06:56:49.603Z,97.33
2017-02-09T06:58:02.627Z,97.8
2017-02-09T06:59:15.651Z,97.52
2017-02-09T07:00:28.667Z,98.18
2017-02-09T07:01:41.652Z,97.61
2017-02-09T07:02:54.675Z,97.43
2017-02-09T07:04:07.703Z,97.43
2017-02-09T07:05:20.720Z,97.05
2017-02-09T07:06:33.325Z,97.52
2017-02-09T07:07:46.359Z,97.9
2017-02-09T07:08:59.391Z,97.52
2017-02-09T07:10:12.383Z,96.95
2017-02-09T07:11:25.403Z,97.24
2017-02-09T07:12:38.046Z,96.95
2017-02-09T07:13:51.073Z,96.95
2017-02-09T07:15:04.108Z,97.14
2017-02-09T07:16:17.132Z,97.14
2017-02-09T07:17:29.756Z,97.14
2017-02-09T07:18:42.682Z,96.95
2017-02-09T07:19:55.701Z,96.77
2017-02-09T07:21:08.391Z,97.14
2017-02-09T07:22:21.418Z,97.14
2017-02-09T07:23:34.433Z,96.95
2017-02-09T07:24:47.433Z,97.14
2017-02-09T07:26:00.448Z,97.29
2017-02-09T07:27:13.449Z,97.05
2017-02-09T07:28:26.493Z,96.72
2017-02-09T07:29:39.491Z,97
2017-02-09T07:30:52.537Z,96.77
2017-02-09T07:32:05.566Z,97.19
2017-02-09T07:33:18.253Z,96.91
2017-02-09T07:34:31.299Z,97
2017-02-09T07:35:44.318Z,97.19
2017-02-09T07:36:57.341Z,96.91
2017-02-09T07:38:10.336Z,96.91
2017-02-09T07:39:23.353Z,96.81
2017-02-09T07:40:36.366Z,97
2017-02-09T07:41:49.395Z,96.63
2017-02-09T07:43:02.445Z,97
2017-02-09T07:44:15.090Z,97
2017-02-09T07:45:28.141Z,96.53
2017-02-09T07:46:41.384Z,96.25
2017-02-09T07:47:54.375Z,96.34
2017-02-09T07:49:07.421Z,96.53
2017-02-09T07:50:20.438Z,96.34
2017-02-09T07:51:33.464Z,96.63
2017-02-09T07:52:46.087Z,97
2017-02-09T07:53:59.108Z,96.44
2017-02-09T07:55:12.125Z,96.25
2017-02-09T07:56:25.150Z,96.44
2017-02-09T07:57:38.170Z,96.44
2017-02-09T07:58:51.190Z,96.63
2017-02-09T08:00:04.237Z,96.44
2017-02-09T08:01:17.247Z,96.34
2017-02-09T08:02:30.278Z,96.44
2017-02-09T08:03:43.298Z,96.34
2017-02-09T08:04:56.317Z,96.44
2017-02-09T08:06:08.943Z,96.53
2017-02-09T08:07:21.963Z,96.44
2017-02-09T08:08:34.980Z,96.06
2017-02-09T08:09:48.005Z,96.25
2017-02-09T08:11:01.027Z,96.15
2017-02-09T08:12:14.047Z,95.68
2017-02-09T08:13:27.067Z,95.97
2017-02-09T08:14:40.089Z,95.68
2017-02-09T08:15:52.709Z,95.59
2017-02-09T08:17:05.731Z,95.87
2017-02-09T08:18:18.752Z,95.68
2017-02-09T08:19:31.794Z,95.59
2017-02-09T08:20:44.414Z,95.21
2017-02-09T08:21:57.416Z,95.12
2017-02-09T08:23:10.427Z,95.21
2017-02-09T08:24:23.485Z,94.74
2017-02-09T08:25:36.548Z,95.21
2017-02-09T08:26:49.599Z,95.4
2017-02-09T08:28:02.617Z,95.12
2017-02-09T08:29:15.239Z,94.46
2017-02-09T08:30:28.261Z,93.89
2017-02-09T08:31:41.305Z,94.27
2017-02-09T08:32:54.308Z,94.46
2017-02-09T08:34:07.348Z,94.74
2017-02-09T08:35:19.995Z,94.27
2017-02-09T08:36:32.988Z,94.18
2017-02-09T08:37:45.610Z,94.08
2017-02-09T08:38:58.229Z,93.99
2017-02-09T08:40:11.253Z,94.18
2017-02-09T08:41:23.502Z,93.99
2017-02-09T08:42:36.138Z,94.08
2017-02-09T08:43:48.792Z,93.94
2017-02-09T08:45:01.865Z,93.66
2017-02-09T08:46:14.883Z,94.18
2017-02-09T08:47:27.894Z,93.84
2017-02-09T08:48:40.900Z,93.37
2017-02-09T08:49:53.919Z,92.9
2017-02-09T08:51:06.930Z,92.43
2017-02-09T08:52:19.955Z,92.14
2017-02-09T08:53:32.982Z,91.86
2017-02-09T08:54:45.626Z,92.24
2017-02-09T08:55:58.649Z,92.71
2017-02-09T08:57:11.636Z,92.52
2017-02-09T08:58:24.639Z,92.33
2017-02-09T08:59:37.711Z,92.43
2017-02-09T09:00:50.361Z,92.43
2017-02-09T09:02:03.377Z,92.43
2017-02-09T09:03:16.400Z,92.43
2017-02-09T09:04:29.399Z,91.96
2017-02-09T09:05:42.422Z,91.96
2017-02-09T09:06:55.440Z,92.43
2017-02-09T09:08:08.474Z,92.8
2017-02-09T09:09:21.458Z,92.43
2017-02-09T09:10:34.452Z,92.24
2017-02-09T09:11:47.474Z,92.33
2017-02-09T09:13:00.519Z,92.52
2017-02-09T09:14:13.547Z,91.86
2017-02-09T09:15:26.226Z,91.67
2017-02-09T09:16:39.228Z,91.49
2017-02-09T09:17:52.254Z,91.2
2017-02-09T09:19:05.271Z,91.11
2017-02-09T09:20:17.916Z,90.82
2017-02-09T09:21:30.916Z,90.92
2017-02-09T09:22:43.534Z,91.86
2017-02-09T09:23:56.558Z,91.49
2017-02-09T09:25:09.574Z,91.67
2017-02-09T09:26:22.217Z,91.3
2017-02-09T09:27:34.893Z,91.67
2017-02-09T09:28:47.516Z,91.3
2017-02-09T09:30:00.527Z,91.39
2017-02-09T09:31:13.180Z,91.11
2017-02-09T09:32:25.820Z,91.67
2017-02-09T09:33:38.865Z,91.39
2017-02-09T09:34:51.895Z,91.39
2017-02-09T09:36:04.896Z,90.92
2017-02-09T09:37:17.913Z,90.45
2017-02-09T09:38:30.952Z,90.45
2017-02-09T09:39:43.978Z,90.45
2017-02-09T09:40:56.974Z,90.64
2017-02-09T09:42:09.996Z,90.64
2017-02-09T09:43:23.017Z,90.16
2017-02-09T09:44:36.063Z,89.97
2017-02-09T09:45:49.096Z,90.16
2017-02-09T09:47:02.122Z,89.78
2017-02-09T09:48:14.767Z,89.31
2017-02-09T09:49:27.396Z,89.12
2017-02-09T09:50:40.421Z,89.31
2017-02-09T09:51:53.441Z,89.31
2017-02-09T09:53:06.477Z,88.37
2017-02-09T09:54:19.125Z,87.99
2017-02-09T09:55:32.172Z,88.93
2017-02-09T09:56:45.218Z,89.22
2017-02-09T09:57:58.218Z,89.97
2017-02-09T09:59:11.260Z,89.78
2017-02-09T10:00:23.921Z,89.22
2017-02-09T10:01:36.556Z,89.12
2017-02-09T10:02:49.600Z,89.31
2017-02-09T10:04:02.240Z,88.93
2017-02-09T10:05:15.258Z,88.93
2017-02-09T10:06:28.286Z,88.09
2017-02-09T10:07:40.959Z,88.46
2017-02-09T10:08:53.601Z,87.71
2017-02-09T10:10:06.614Z,87.14
2017-02-09T10:11:19.271Z,87.18
2017-02-09T10:12:31.917Z,87.18
2017-02-09T10:13:44.937Z,87.14
2017-02-09T10:14:57.635Z,87.05
2017-02-09T10:16:10.647Z,87.43
2017-02-09T10:17:23.290Z,87.09
2017-02-09T10:18:35.936Z,86.99
2017-02-09T10:19:48.944Z,87.28
2017-02-09T10:21:01.936Z,86.71
2017-02-09T10:22:14.933Z,86.62
2017-02-09T10:23:27.986Z,86.43
2017-02-09T10:24:41.024Z,86.9
2017-02-09T10:25:54.070Z,86.33
2017-02-09T10:27:06.698Z,85.77
2017-02-09T10:28:18.561Z,85.3
2017-02-09T10:29:31.207Z,84.73
2017-02-09T10:30:43.874Z,84.82
2017-02-09T10:31:56.524Z,84.82
2017-02-09T10:33:09.545Z,84.92
2017-02-09T10:34:22.583Z,85.86
2017-02-09T10:35:35.236Z,85.96
2017-02-09T10:36:48.253Z,85.96
2017-02-09T10:38:01.557Z,85.01
2017-02-09T10:39:14.203Z,85.11
2017-02-09T10:40:27.220Z,85.11
2017-02-09T10:41:39.844Z,84.92
2017-02-09T10:42:52.889Z,85.11
2017-02-09T10:44:05.885Z,85.11
2017-02-09T10:45:18.532Z,85.3
2017-02-09T10:46:31.180Z,85.2
2017-02-09T10:47:43.798Z,85.01
2017-02-09T10:48:56.809Z,84.92
2017-02-09T10:50:09.841Z,84.26
2017-02-09T10:51:22.083Z,84.16
2017-02-09T10:52:35.105Z,83.88
2017-02-09T10:53:48.117Z,84.35
2017-02-09T10:55:01.123Z,83.59
2017-02-09T10:56:14.168Z,83.22
2017-02-09T10:57:27.215Z,83.22
2017-02-09T10:58:40.240Z,83.59
2017-02-09T10:59:53.257Z,83.88
2017-02-09T11:01:06.275Z,83.78
2017-02-09T11:02:18.519Z,83.88
2017-02-09T11:03:31.144Z,83.4
2017-02-09T11:04:43.793Z,83.31
2017-02-09T11:05:56.827Z,83.69
2017-02-09T11:07:09.858Z,83.88
2017-02-09T11:08:22.480Z,83.59
2017-02-09T11:09:35.525Z,83.5
2017-02-09T11:10:48.546Z,83.4
2017-02-09T11:12:01.591Z,82.46
2017-02-09T11:13:14.210Z,82.56
2017-02-09T11:14:26.885Z,82.37
2017-02-09T11:15:39.928Z,81.65
2017-02-09T11:16:52.973Z,81.52
2017-02-09T11:18:05.611Z,81.33
2017-02-09T11:19:17.108Z,81.04
2017-02-09T11:20:30.138Z,81.23
2017-02-09T11:21:43.154Z,80.95
2017-02-09T11:22:56.175Z,81.42
2017-02-09T11:24:09.174Z,81.23
2017-02-09T11:25:21.864Z,81.52
2017-02-09T11:26:34.906Z,81.61
2017-02-09T11:27:47.934Z,81.65
2017-02-09T11:29:00.955Z,81.42
2017-02-09T11:30:13.976Z,81.27
2017-02-09T11:31:26.599Z,82.28
2017-02-09T11:32:39.645Z,82.37
2017-02-09T11:33:52.292Z,82.31
2017-02-09T11:35:04.963Z,81.65
2017-02-09T11:36:17.225Z,81.65
2017-02-09T11:37:30.230Z,82.5
2017-02-09T11:38:43.279Z,82.31
2017-02-09T11:39:56.319Z,82.22
2017-02-09T11:41:09.339Z,81.74
2017-02-09T11:42:22.362Z,81.18
2017-02-09T11:43:35.408Z,80.71
2017-02-09T11:44:48.431Z,81.46
2017-02-09T11:46:01.451Z,81.84
2017-02-09T11:47:14.492Z,82.41
2017-02-09T11:48:27.143Z,81.65
2017-02-09T11:49:40.185Z,81.65
2017-02-09T11:50:53.197Z,81.74
2017-02-09T11:52:05.830Z,80.62
2017-02-09T11:53:18.852Z,80.24
2017-02-09T11:54:31.893Z,80.8
2017-02-09T11:55:44.947Z,80.9
2017-02-09T11:56:57.585Z,80.62
2017-02-09T11:58:09.835Z,80.33
2017-02-09T11:59:22.854Z,80.71
2017-02-09T12:00:35.901Z,80.62
2017-02-09T12:01:48.895Z,81.37
2017-02-09T12:03:01.942Z,81.09
2017-02-09T12:04:14.938Z,81.37
2017-02-09T12:05:27.983Z,81.65
2017-02-09T12:06:41.046Z,80.9
2017-02-09T12:07:54.073Z,81.27
2017-02-09T12:09:07.096Z,81.27
2017-02-09T12:10:19.343Z,81.65
2017-02-09T12:11:32.342Z,81.37
2017-02-09T12:12:44.607Z,81.37
2017-02-09T12:13:57.627Z,81.56
2017-02-09T12:15:10.276Z,81.65
2017-02-09T12:16:23.320Z,81.56
2017-02-09T12:17:35.968Z,81.56
2017-02-09T12:18:48.989Z,81.65
2017-02-09T12:20:02.032Z,81.74
2017-02-09T12:21:14.269Z,81.65
2017-02-09T12:22:27.304Z,82.31
2017-02-09T12:23:40.322Z,82.6
2017-02-09T12:24:53.368Z,81.18
2017-02-09T12:26:06.003Z,80.24
2017-02-09T12:27:19.010Z,80.14
2017-02-09T12:28:32.046Z,80.05
2017-02-09T12:29:45.075Z,79.86
2017-02-09T12:30:58.145Z,80.52
2017-02-09T12:32:11.185Z,80.9
2017-02-09T12:33:24.213Z,80.8
2017-02-09T12:34:36.881Z,81.18
2017-02-09T12:35:49.903Z,81.46
2017-02-09T12:37:02.928Z,81.27
2017-02-09T12:38:15.798Z,81.37
2017-02-09T12:39:28.816Z,81.18
2017-02-09T12:40:41.827Z,81.74
2017-02-09T12:41:54.831Z,81.65
2017-02-09T12:43:07.880Z,81.56
2017-02-09T12:44:20.515Z,82.22
2017-02-09T12:45:33.549Z,82.31
2017-02-09T12:46:46.568Z,82.22
2017-02-09T12:47:59.615Z,81.56
2017-02-09T12:49:12.635Z,81.09
2017-02-09T12:50:25.279Z,81.46
2017-02-09T12:51:38.324Z,81.74
2017-02-09T12:52:50.948Z,81.46
2017-02-09T12:54:03.965Z,81.74
2017-02-09T12:55:16.586Z,81.74
2017-02-09T12:56:29.232Z,82.31
2017-02-09T12:57:42.286Z,82.6
2017-02-09T12:58:55.305Z,81.74
2017-02-09T13:00:08.344Z,82.31
2017-02-09T13:01:21.394Z,82.22
2017-02-09T13:02:34.036Z,81.56
2017-02-09T13:03:47.067Z,81.84
2017-02-09T13:04:59.707Z,82.31
2017-02-09T13:06:12.748Z,82.6
2017-02-09T13:07:25.396Z,82.98
2017-02-09T13:08:38.047Z,82.5
2017-02-09T13:09:51.093Z,82.41
2017-02-09T13:11:04.110Z,82.6
2017-02-09T13:12:16.770Z,82.79
2017-02-09T13:13:29.779Z,83.17
2017-02-09T13:14:42.399Z,83.31
2017-02-09T13:15:55.033Z,84.01
2017-02-09T13:17:08.061Z,83.59
2017-02-09T13:18:20.712Z,83.4
2017-02-09T13:19:33.750Z,83.88
2017-02-09T13:20:46.754Z,83.78
2017-02-09T13:21:59.800Z,84.73
2017-02-09T13:23:12.791Z,84.45
2017-02-09T13:24:25.416Z,84.73
2017-02-09T13:25:38.058Z,84.35
2017-02-09T13:26:51.083Z,84.64
2017-02-09T13:28:04.125Z,84.26
2017-02-09T13:29:16.399Z,84.16
2017-02-09T13:30:29.447Z,84.64
2017-02-09T13:31:42.491Z,84.92
2017-02-09T13:32:54.750Z,85.2
2017-02-09T13:34:07.002Z,85.39
2017-02-09T13:35:20.026Z,85.96
2017-02-09T13:36:33.070Z,85.77
2017-02-09T13:37:46.096Z,85.01
2017-02-09T13:38:59.113Z,85.2
2017-02-09T13:40:12.132Z,85.49
2017-02-09T13:41:25.129Z,85.01
2017-02-09T13:42:37.796Z,85.01
2017-02-09T13:43:50.824Z,84.73
2017-02-09T13:45:03.817Z,85.39
2017-02-09T13:46:16.838Z,85.86
2017-02-09T13:47:29.849Z,85.96
2017-02-09T13:48:42.855Z,86.15
2017-02-09T13:49:55.856Z,86.15
2017-02-09T13:51:08.476Z,86.52
2017-02-09T13:52:21.495Z,87.28
2017-02-09T13:53:34.513Z,86.43
2017-02-09T13:54:47.539Z,86.62
2017-02-09T13:56:00.560Z,86.71
2017-02-09T13:57:13.579Z,86.52
2017-02-09T13:58:26.627Z,86.71
2017-02-09T13:59:39.672Z,86.99
2017-02-09T14:00:52.694Z,87.18
2017-02-09T14:02:05.712Z,86.99
2017-02-09T14:03:18.334Z,87.09
2017-02-09T14:04:31.376Z,87.28
2017-02-09T14:05:44.397Z,87.85
2017-02-09T14:06:57.422Z,86.99
2017-02-09T14:08:10.056Z,87.47
2017-02-09T14:09:23.060Z,87.37
2017-02-09T14:10:36.109Z,87.94
2017-02-09T14:11:49.103Z,87.66
2017-02-09T14:13:01.753Z,86.8
2017-02-09T14:14:14.768Z,87.94
2017-02-09T14:15:27.767Z,87.66
2017-02-09T14:16:40.439Z,87.47
2017-02-09T14:17:53.074Z,87.56
2017-02-09T14:19:06.106Z,87.66
2017-02-09T14:20:18.724Z,87.75
2017-02-09T14:21:31.747Z,87.85
2017-02-09T14:22:44.818Z,87.66
2017-02-09T14:23:57.464Z,87.66
2017-02-09T14:25:10.131Z,87.66
2017-02-09T14:26:22.777Z,87.94
2017-02-09T14:27:35.819Z,88.42
2017-02-09T14:28:48.846Z,88.51
2017-02-09T14:30:01.127Z,88.51
2017-02-09T14:31:14.164Z,88.6
2017-02-09T14:32:27.177Z,88.51
2017-02-09T14:33:40.230Z,88.42
2017-02-09T14:34:53.274Z,88.32
2017-02-09T14:36:05.896Z,88.04
2017-02-09T14:37:18.940Z,87.75
2017-02-09T14:38:31.978Z,88.42
2017-02-09T14:39:45.012Z,88.79
2017-02-09T14:40:57.673Z,89.07
2017-02-09T14:42:10.344Z,88.98
2017-02-09T14:43:23.369Z,89.26
2017-02-09T14:44:36.390Z,88.79
2017-02-09T14:45:49.389Z,88.89
2017-02-09T14:47:02.411Z,88.98
2017-02-09T14:48:15.053Z,88.79
2017-02-09T14:49:28.066Z,89.17
2017-02-09T14:50:41.116Z,89.36
2017-02-09T14:51:54.171Z,89.83
2017-02-09T14:53:07.211Z,89.64
2017-02-09T14:54:19.859Z,90.11
2017-02-09T14:55:32.502Z,90.3
2017-02-09T14:56:45.502Z,90.21
2017-02-09T14:57:58.170Z,90.96
2017-02-09T14:59:10.819Z,90.68
2017-02-09T15:00:23.862Z,90.49
2017-02-09T15:01:36.883Z,90.49
2017-02-09T15:02:49.907Z,90.49
2017-02-09T15:04:02.552Z,90.21
2017-02-09T15:05:15.199Z,90.3
2017-02-09T15:06:28.219Z,90.96
2017-02-09T15:07:41.211Z,90.77
2017-02-09T15:08:54.210Z,90.54
2017-02-09T15:10:07.204Z,91.3
2017-02-09T15:11:20.229Z,90.92
2017-02-09T15:12:32.876Z,91.2
2017-02-09T15:13:45.935Z,90.82
2017-02-09T15:14:58.557Z,91.3
2017-02-09T15:16:11.583Z,91.2
2017-02-09T15:17:24.246Z,91.58
2017-02-09T15:18:36.882Z,91.3
2017-02-09T15:19:49.886Z,91.49
2017-02-09T15:21:02.891Z,91.67
2017-02-09T15:22:15.537Z,92.61
2017-02-09T15:23:28.558Z,92.05
2017-02-09T15:24:41.583Z,91.77
2017-02-09T15:25:54.653Z,91.86
2017-02-09T15:27:07.673Z,92.14
2017-02-09T15:28:20.718Z,92.24
2017-02-09T15:29:33.742Z,92.14
2017-02-09T15:30:46.786Z,92.14
2017-02-09T15:31:59.796Z,92.61
2017-02-09T15:33:12.782Z,92.71
2017-02-09T15:34:25.775Z,93.47
2017-02-09T15:35:38.792Z,93.09
2017-02-09T15:36:51.437Z,92.71
2017-02-09T15:38:04.083Z,92.9
2017-02-09T15:39:17.107Z,92.9
2017-02-09T15:40:30.129Z,92.99
2017-02-09T15:41:42.763Z,93.09
2017-02-09T15:42:55.821Z,92.99